Time;durP1;ratioP1;P1;durP2;ratioP2;P2;SDS_P1;SDS_P2;PMS_P1;PMS_P2;Temp;Humidity;BMP_temperature;BMP_pressure;BME280_temperature;BME280_humidity;BME280_pressure;Samples;Min_cycle;Max_cycle;Signal;HPM_P1;HPM_P2
2022/11/09 00:05:18;;;;;;;1.53;0.93;;;;;;;;;;21072027;28;20232;-68
2022/11/09 00:15:20;;;;;;;3.37;0.87;;;;;;;;;;21072401;28;20258;-70
2022/11/09 00:25:22;;;;;;;1.53;1.03;;;;;;;;;;21072013;28;20278;-69
2022/11/09 00:35:24;;;;;;;1.13;0.73;;;;;;;;;;21070861;28;20636;-69
2022/11/09 00:45:25;;;;;;;2.40;0.77;;;;;;;;;;21070169;28;20732;-69
2022/11/09 00:55:27;;;;;;;1.97;1.10;;;;;;;;;;21068709;28;20241;-70
2022/11/09 01:05:29;;;;;;;1.00;0.40;;;;;;;;;;21033718;28;20220;-69
2022/11/09 01:15:31;;;;;;;1.30;0.60;;;;;;;;;;21066980;28;20250;-70
2022/11/09 01:25:33;;;;;;;1.03;0.57;;;;;;;;;;21122075;28;20219;-69
2022/11/09 01:35:36;;;;;;;1.57;0.70;;;12.00;99.90;;;;;;21132955;28;20204;-70
2022/11/09 01:45:38;;;;;;;1.90;0.97;;;;;;;;;;21131255;28;20220;-69
2022/11/09 01:55:41;;;;;;;3.50;1.20;;;12.00;99.90;;;;;;21148535;28;20607;-69
2022/11/09 02:05:43;;;;;;;1.20;0.90;;;11.90;99.90;;;;;;21131860;28;20268;-69
2022/11/09 02:15:45;;;;;;;1.80;1.20;;;;;;;;;;21131044;28;20257;-69
2022/11/09 02:26:17;;;;;;;2.20;1.40;;;11.90;99.90;;;;;;21140636;28;20694;-69
2022/11/09 02:36:20;;;;;;;2.30;1.47;;;11.70;99.90;;;;;;21146296;28;20276;-70
2022/11/09 02:46:24;;;;;;;2.27;1.33;;;;;;;;;;21145853;28;20223;-70
2022/11/09 02:56:26;;;;;;;2.00;1.27;;;;;;;;;;21143520;28;20227;-69
2022/11/09 03:06:33;;;;;;;2.07;1.40;;;;;;;;;;21144230;28;20231;-69
2022/11/09 03:16:37;;;;;;;2.80;1.60;;;11.70;99.90;;;;;;21144456;28;20208;-70
2022/11/09 03:26:40;;;;;;;2.70;1.53;;;;;;;;;;21142831;28;20207;-69
2022/11/09 03:36:42;;;;;;;1.73;1.00;;;;;;;;;;21141995;28;20233;-70
2022/11/09 03:46:44;;;;;;;2.53;1.37;;;;;;;;;;21141067;28;20219;-69
2022/11/09 03:56:45;;;;;;;3.40;1.27;;;;;;;;;;21157662;28;20280;-69
2022/11/09 04:06:47;;;;;;;3.03;1.60;;;;;;;;;;21157620;28;20216;-69
2022/11/09 04:16:49;;;;;;;1.97;1.50;;;;;;;;;;21156760;28;20196;-69
2022/11/09 04:26:50;;;;;;;3.43;1.57;;;;;;;;;;21155633;28;20257;-69
2022/11/09 04:36:52;;;;;;;2.13;1.50;;;;;;;;;;21155543;28;20272;-69
2022/11/09 04:46:54;;;;;;;2.97;1.53;;;;;;;;;;21138917;28;20222;-69
2022/11/09 04:56:55;;;;;;;3.00;1.63;;;;;;;;;;21110644;28;20220;-69
2022/11/09 05:06:57;;;;;;;3.03;1.63;;;;;;;;;;21204610;22;20235;-64
2022/11/09 05:16:59;;;;;;;2.63;1.53;;;;;;;;;;21118780;28;20595;-64
2022/11/09 05:27:03;;;;;;;2.97;1.80;;;;;;;;;;21119742;28;20793;-64
2022/11/09 05:37:05;;;;;;;3.07;1.40;;;;;;;;;;21119642;28;20352;-64
2022/11/09 05:47:07;;;;;;;2.97;1.67;;;;;;;;;;21102214;28;20245;-64
2022/11/09 05:57:09;;;;;;;1.70;1.30;;;;;;;;;;21123881;28;20678;-64
2022/11/09 06:07:10;;;;;;;3.27;1.63;;;;;;;;;;21118239;28;20300;-64
2022/11/09 06:17:12;;;;;;;1.03;0.83;;;;;;;;;;21118193;28;20265;-64
2022/11/09 06:27:14;;;;;;;1.77;1.00;;;;;;;;;;21134225;28;20212;-64
2022/11/09 06:37:16;;;;;;;1.10;0.93;;;;;;;;;;21104314;28;20622;-64
2022/11/09 06:47:18;;;;;;;4.50;1.40;;;;;;;;;;21115431;28;20220;-64
2022/11/09 06:57:20;;;;;;;1.73;1.23;;;;;;;;;;21132294;28;20212;-65
2022/11/09 07:07:22;;;;;;;1.93;1.23;;;;;;;;;;21130317;28;20220;-65
2022/11/09 07:17:25;;;;;;;1.90;1.03;;;;;;;;;;21129762;28;20216;-65
2022/11/09 07:27:27;;;;;;;1.47;0.70;;;;;;;;;;21129976;28;20722;-65
2022/11/09 07:37:28;;;;;;;0.80;0.63;;;;;;;;;;21128271;28;20261;-65
2022/11/09 07:47:31;;;;;;;0.90;0.53;;;;;;;;;;21127190;28;20257;-65
2022/11/09 07:57:32;;;;;;;0.40;0.40;;;;;;;;;;21110718;28;20755;-64
2022/11/09 08:07:34;;;;;;;0.40;0.37;;;;;;;;;;21126616;28;20219;-64
2022/11/09 08:17:36;;;;;;;0.43;0.30;;;;;;;;;;21125490;28;20854;-64
2022/11/09 08:27:41;;;;;;;0.37;0.23;;;;;;;;;;21107681;28;20576;-64
2022/11/09 08:37:45;;;;;;;0.80;0.40;;;11.90;99.90;;;;;;21107748;28;20233;-65
2022/11/09 08:47:47;;;;;;;0.40;0.40;;;;;;;;;;21107455;28;20603;-65
2022/11/09 08:57:49;;;;;;;0.30;0.30;;;;;;;;;;21106247;28;20200;-64
2022/11/09 09:07:51;;;;;;;0.40;0.30;;;;;;;;;;21104904;28;20215;-64
2022/11/09 09:17:53;;;;;;;0.57;0.40;;;;;;;;;;21103615;28;20195;-64
2022/11/09 09:27:55;;;;;;;0.67;0.53;;;;;;;;;;21118777;28;20281;-64
2022/11/09 09:37:57;;;;;;;0.83;0.70;;;;;;;;;;21101685;28;20204;-64
2022/11/09 09:48:22;;;;;;;0.90;0.57;;;12.80;99.90;;;;;;21102493;28;20292;-64
2022/11/09 09:58:28;;;;;;;0.73;0.47;;;;;;;;;;21118108;28;20196;-64
2022/11/09 10:08:35;;;;;;;1.37;0.60;;;13.20;99.90;;;;;;21101002;28;20280;-64
2022/11/09 10:18:47;;;;;;;1.27;0.73;;;;;;;;;;21100360;28;20477;-65
2022/11/09 10:28:59;;;;;;;1.30;0.63;;;13.90;99.90;;;;;;21100988;28;20710;-65
2022/11/09 10:39:01;;;;;;;0.50;0.50;;;;;;;;;;21116573;28;20211;-65
2022/11/09 10:49:22;;;;;;;0.50;0.40;;;;;;;;;;21131662;28;20208;-65
2022/11/09 10:59:54;;;;;;;2.03;0.60;;;;;;;;;;21133976;28;20269;-65
2022/11/09 11:10:14;;;;;;;0.90;0.70;;;;;;;;;;20841701;28;20552;-68
2022/11/09 11:20:36;;;;;;;1.97;0.70;;;14.00;99.90;;;;;;20885754;28;20217;-68
2022/11/09 11:30:57;;;;;;;1.37;0.60;;;;;;;;;;20901943;28;20292;-68
2022/11/09 11:41:20;;;;;;;1.10;0.50;;;;;;;;;;20886421;28;20290;-69
2022/11/09 11:51:40;;;;;;;1.53;0.50;;;;;;;;;;20886385;28;20206;-68
2022/11/09 12:02:00;;;;;;;0.63;0.50;;;;;;;;;;20882468;28;20291;-69
2022/11/09 12:12:21;;;;;;;0.70;0.50;;;;;;;;;;20897223;28;20210;-68
2022/11/09 12:22:44;;;;;;;3.13;0.60;;;14.00;99.90;;;;;;20881204;28;20649;-68
2022/11/09 12:33:26;;;;;;;0.83;0.50;;;14.00;99.90;;;;;;20907924;28;20584;-68
2022/11/09 12:43:51;;;;;;;0.60;0.50;;;;;;;;;;20891676;28;20294;-68
2022/11/09 12:54:12;;;;;;;0.93;0.50;;;;;;;;;;20877037;28;20218;-68
2022/11/09 13:04:33;;;;;;;1.53;0.50;;;;;;;;;;20876006;28;20295;-67
2022/11/09 13:14:53;;;;;;;0.70;0.43;;;;;;;;;;20874839;28;20252;-67
2022/11/09 13:25:49;;;;;;;2.30;0.67;;;;;;;;;;20876421;28;20260;-67
2022/11/09 13:36:10;;;;;;;3.03;0.90;;;;;;;;;;20870704;28;20252;-67
2022/11/09 13:46:37;;;;;;;2.20;0.50;;;14.00;99.90;;;;;;20878106;28;20566;-67
2022/11/09 13:56:58;;;;;;;0.70;0.57;;;;;;;;;;20884853;28;20264;-69
2022/11/09 14:07:24;;;;;;;1.33;0.53;;;;;;;;;;20883267;28;20233;-69
2022/11/09 14:17:44;;;;;;;0.37;0.30;;;;;;;;;;20888938;28;20700;-69
2022/11/09 14:28:18;;;;;;;0.53;0.43;;;;;;;;;;20881677;28;20282;-69
2022/11/09 14:38:45;;;;;;;0.90;0.40;;;;;;;;;;20890536;28;20226;-69
2022/11/09 14:49:09;;;;;;;1.00;0.80;;;;;;;;;;20892834;28;20260;-69
2022/11/09 14:59:31;;;;;;;0.87;0.63;;;;;;;;;;20893663;28;20218;-69
2022/11/09 15:10:12;;;;;;;1.83;0.70;;;;;;;;;;20874573;28;20229;-69
2022/11/09 15:20:34;;;;;;;0.60;0.50;;;13.90;99.90;;;;;;20896967;28;20291;-69
2022/11/09 15:30:54;;;;;;;1.90;0.57;;;;;;;;;;20875594;28;20263;-69
2022/11/09 15:41:18;;;;;;;1.13;0.60;;;;;;;;;;20875628;28;20230;-71
2022/11/09 15:51:39;;;;;;;1.03;0.70;;;;;;;;;;20889061;28;20248;-70
2022/11/09 16:01:59;;;;;;;0.80;0.63;;;;;;;;;;20909946;28;20248;-70
2022/11/09 16:12:20;;;;;;;1.07;0.53;;;;;;;;;;20902418;28;20306;-70
2022/11/09 16:22:41;;;;;;;0.57;0.40;;;;;;;;;;20899246;28;20260;-70
2022/11/09 16:33:02;;;;;;;0.60;0.40;;;;;;;;;;20885399;28;20621;-70
2022/11/09 16:43:22;;;;;;;0.73;0.40;;;;;;;;;;20882609;28;20284;-70
2022/11/09 16:53:43;;;;;;;0.73;0.40;;;;;;;;;;20887871;28;20799;-70
2022/11/09 17:04:03;;;;;;;1.67;0.70;;;;;;;;;;20894089;22;20221;-69
2022/11/09 17:14:24;;;;;;;1.50;0.87;;;;;;;;;;20793692;28;20631;-69
2022/11/09 17:24:44;;;;;;;2.20;0.70;;;;;;;;;;20787198;28;20289;-68
2022/11/09 17:35:05;;;;;;;1.30;0.63;;;;;;;;;;20808628;28;20206;-68
2022/11/09 17:45:26;;;;;;;0.60;0.53;;;;;;;;;;20808562;28;20226;-68
2022/11/09 17:55:48;;;;;;;2.27;0.83;;;;;;;;;;20776141;28;20662;-68
2022/11/09 18:06:14;;;;;;;1.27;0.60;;;13.50;99.90;;;;;;20801290;28;20238;-68
2022/11/09 18:16:36;;;;;;;0.43;0.43;;;;;;;;;;20829214;28;20222;-68
2022/11/09 18:26:57;;;;;;;0.40;0.40;;;;;;;;;;20800157;28;20284;-68
2022/11/09 18:37:17;;;;;;;1.07;0.40;;;;;;;;;;20783072;28;20707;-68
2022/11/09 18:47:38;;;;;;;0.63;0.40;;;;;;;;;;20811385;28;20293;-68
2022/11/09 18:57:58;;;;;;;0.43;0.37;;;;;;;;;;20796438;28;20298;-68
2022/11/09 19:18:58;;;;;;;1.37;0.53;;;;;;;;;;20818259;28;20560;-68
2022/11/09 19:29:18;;;;;;;2.07;0.77;;;;;;;;;;20793688;28;20226;-68
2022/11/09 19:39:44;;;;;;;0.33;0.30;;;;;;;;;;20793260;28;20352;-68
2022/11/09 19:50:04;;;;;;;1.83;0.33;;;;;;;;;;20791783;28;20210;-68
2022/11/09 20:00:25;;;;;;;1.90;0.60;;;;;;;;;;20807390;28;20234;-68
2022/11/09 20:10:45;;;;;;;1.60;0.77;;;;;;;;;;20790421;28;20214;-68
2022/11/09 20:21:06;;;;;;;2.43;1.07;;;;;;;;;;20816515;28;20252;-68
2022/11/09 20:31:27;;;;;;;2.87;1.70;;;;;;;;;;20789465;28;20214;-68
2022/11/09 20:41:47;;;;;;;2.60;0.70;;;;;;;;;;20788837;28;20229;-68
2022/11/09 20:52:08;;;;;;;0.30;0.30;;;;;;;;;;20814152;28;20219;-68
2022/11/09 21:02:29;;;;;;;1.37;0.70;;;;;;;;;;20802744;28;20293;-68
2022/11/09 21:12:53;;;;;;;0.87;0.50;;;;;;;;;;20786145;28;20248;-68
2022/11/09 21:33:34;;;;;;;2.73;1.70;;;;;;;;;;20798417;28;20214;-68
2022/11/09 21:43:55;;;;;;;1.57;0.67;;;;;;;;;;20800491;28;20269;-68
2022/11/09 21:54:15;;;;;;;2.40;1.00;;;12.90;99.90;;;;;;20786159;28;20272;-68
2022/11/09 22:04:36;;;;;;;1.37;0.60;;;;;;;;;;20802486;28;20763;-67
2022/11/09 22:25:37;;;;;;;2.30;0.83;;;12.70;99.90;;;;;;20818351;28;20218;-66
2022/11/09 22:36:03;;;;;;;0.70;0.50;;;12.70;99.90;;;;;;20801786;28;20230;-66
2022/11/09 22:46:25;;;;;;;3.00;0.67;;;;;;;;;;20827188;28;20226;-66
2022/11/09 22:56:45;;;;;;;2.50;0.80;;;;;;;;;;20838723;28;20689;-66
2022/11/09 23:07:06;;;;;;;2.40;0.50;;;;;;;;;;20939102;22;20707;-70
2022/11/09 23:28:06;;;;;;;1.70;0.50;;;;;;;;;;21077185;28;20787;-70
2022/11/09 23:38:26;;;;;;;1.67;1.17;;;;;;;;;;21062175;28;20667;-70
2022/11/09 23:48:47;;;;;;;1.80;0.63;;;;;;;;;;21075171;28;20256;-70
2022/11/09 23:59:08;;;;;;;2.20;0.70;;;;;;;;;;21076344;28;20196;-70
